Time;durP1;ratioP1;P1;durP2;ratioP2;P2;SDS_P1;SDS_P2;PMS_P1;PMS_P2;Temp;Humidity;BMP_temperature;BMP_pressure;BME280_temperature;BME280_humidity;BME280_pressure;Samples;Min_cycle;Max_cycle;Signal;HPM_P1;HPM_P2
2022/12/22 03:26:29;;;;;;;18.10;11.17;;;10.30;99.90;;;;;;5075951;28;20202;-61
2022/12/22 03:28:56;;;;;;;19.57;11.60;;;10.30;99.90;;;;;;5075996;28;20715;-61
2022/12/22 03:31:23;;;;;;;19.67;12.17;;;10.30;99.90;;;;;;5065196;28;20256;-61
2022/12/22 03:33:50;;;;;;;18.70;11.80;;;10.40;99.90;;;;;;5059792;28;20221;-62
2022/12/22 03:36:16;;;;;;;17.27;11.43;;;10.40;99.90;;;;;;5077862;28;20195;-62
2022/12/22 03:38:43;;;;;;;20.87;12.20;;;10.40;99.90;;;;;;5073691;28;20692;-63
2022/12/22 03:46:28;;;;;;;18.20;12.67;;;10.40;99.90;;;;;;5075122;28;20196;-61
2022/12/22 03:46:42;;;;;;;15.63;11.70;;;10.40;99.90;;;;;;5069809;28;20202;-61
2022/12/22 03:49:09;;;;;;;21.27;12.17;;;10.40;99.90;;;;;;5075107;28;20203;-62
2022/12/22 03:51:53;;;;;;;15.43;10.23;;;10.40;99.90;;;;;;5077474;28;20214;-61
2022/12/22 03:54:22;;;;;;;18.10;12.67;;;10.40;99.90;;;;;;5059472;28;20215;-61
2022/12/22 03:56:50;;;;;;;21.47;12.47;;;10.40;99.90;;;;;;5076911;28;20210;-61
2022/12/22 03:59:18;;;;;;;28.07;11.90;;;10.40;99.90;;;;;;5059530;28;20198;-62
2022/12/22 04:01:47;;;;;;;18.33;12.13;;;10.50;99.90;;;;;;5076535;28;20566;-61
2022/12/22 04:04:16;;;;;;;22.07;12.63;;;10.50;99.90;;;;;;5077721;28;20199;-61
2022/12/22 04:06:43;;;;;;;21.33;12.77;;;10.40;99.90;;;;;;5062883;28;21710;-61
2022/12/22 04:09:11;;;;;;;19.37;12.57;;;10.40;99.90;;;;;;5076688;28;20297;-61
2022/12/22 04:14:24;;;;;;;20.50;12.10;;;10.40;99.90;;;;;;5073655;28;20298;-61
2022/12/22 04:16:59;;;;;;;16.93;11.47;;;10.40;99.90;;;;;;5075942;28;20318;-61
2022/12/22 04:19:26;;;;;;;18.60;10.57;;;10.50;99.90;;;;;;5074338;28;20279;-61
2022/12/22 04:21:53;;;;;;;113.80;14.37;;;10.40;99.90;;;;;;5060817;28;20227;-62
2022/12/22 04:24:21;;;;;;;47.63;11.53;;;10.10;99.90;;;;;;5077261;28;20208;-60
2022/12/22 04:26:48;;;;;;;15.30;10.33;;;10.00;99.90;;;;;;5076428;28;20245;-60
2022/12/22 04:29:15;;;;;;;15.23;10.67;;;10.00;99.90;;;;;;5054532;28;20209;-61
2022/12/22 04:31:43;;;;;;;19.17;11.57;;;10.10;99.90;;;;;;5076257;28;20214;-61
2022/12/22 04:34:10;;;;;;;15.83;10.57;;;10.20;99.90;;;;;;5059526;28;20238;-61
2022/12/22 04:36:36;;;;;;;21.10;12.00;;;10.20;99.90;;;;;;5076948;28;20229;-60
2022/12/22 04:39:03;;;;;;;17.90;11.73;;;10.30;99.90;;;;;;5075949;28;20278;-61
2022/12/22 04:41:30;;;;;;;15.90;11.10;;;10.30;99.90;;;;;;5077481;28;20213;-60
2022/12/22 04:43:57;;;;;;;19.73;11.40;;;10.30;99.90;;;;;;5073609;28;20215;-61
2022/12/22 04:46:23;;;;;;;20.47;11.20;;;10.30;99.90;;;;;;5076555;28;20198;-61
2022/12/22 04:48:50;;;;;;;19.93;11.50;;;10.30;99.90;;;;;;5076324;28;20225;-62
2022/12/22 04:51:26;;;;;;;16.80;9.63;;;10.20;99.90;;;;;;5059057;28;20240;-61
2022/12/22 04:53:53;;;;;;;15.77;10.63;;;10.20;99.90;;;;;;5076055;28;20314;-61
2022/12/22 04:56:19;;;;;;;17.30;10.80;;;10.20;99.90;;;;;;5077582;28;20298;-61
2022/12/22 04:58:46;;;;;;;19.43;11.87;;;10.20;99.90;;;;;;5074359;28;20669;-61
2022/12/22 05:01:15;;;;;;;21.27;11.00;;;10.20;99.90;;;;;;5076593;28;20283;-60
2022/12/22 05:03:43;;;;;;;17.20;11.43;;;10.20;99.90;;;;;;5076869;28;20195;-61
2022/12/22 05:06:10;;;;;;;18.73;11.30;;;10.30;99.90;;;;;;5075967;28;20209;-61
2022/12/22 05:08:37;;;;;;;16.90;10.67;;;10.30;99.90;;;;;;5074795;28;20669;-61
2022/12/22 05:11:04;;;;;;;14.20;10.73;;;10.30;99.90;;;;;;5067815;28;20737;-63
2022/12/22 05:13:31;;;;;;;15.20;10.33;;;10.30;99.90;;;;;;5073198;28;20662;-63
2022/12/22 05:16:07;;;;;;;15.43;10.53;;;10.20;99.90;;;;;;5075508;28;20713;-62
2022/12/22 05:18:35;;;;;;;15.57;10.37;;;10.30;99.90;;;;;;5073691;28;20197;-61
2022/12/22 05:21:05;;;;;;;14.77;10.00;;;10.20;99.90;;;;;;5075439;28;20252;-61
2022/12/22 05:23:32;;;;;;;13.30;9.43;;;10.20;99.90;;;;;;5074324;28;20297;-61
2022/12/22 05:25:58;;;;;;;14.87;10.20;;;10.10;99.90;;;;;;5077115;28;20623;-61
2022/12/22 05:28:25;;;;;;;16.40;10.67;;;10.20;99.90;;;;;;5071788;28;20302;-61
2022/12/22 05:30:53;;;;;;;15.70;10.30;;;10.30;99.90;;;;;;5068147;28;20242;-60
2022/12/22 05:33:20;;;;;;;16.63;10.73;;;10.30;99.90;;;;;;5082552;28;20224;-62
2022/12/22 05:35:47;;;;;;;16.67;11.20;;;10.30;99.90;;;;;;5081274;28;20312;-60
2022/12/22 05:38:13;;;;;;;15.67;10.10;;;10.30;99.90;;;;;;5081207;28;20186;-60
2022/12/22 05:40:40;;;;;;;19.63;12.00;;;10.30;99.90;;;;;;5082464;28;20712;-62
2022/12/22 05:43:09;;;;;;;19.63;11.43;;;10.40;99.90;;;;;;5081513;28;20229;-61
2022/12/22 05:45:35;;;;;;;15.93;9.77;;;10.40;99.90;;;;;;5082516;28;20616;-61
2022/12/22 05:48:02;;;;;;;16.27;10.90;;;10.40;99.90;;;;;;5063917;28;20207;-63
2022/12/22 05:50:30;;;;;;;17.00;10.73;;;10.50;99.90;;;;;;5081410;28;20201;-60
2022/12/22 05:52:57;;;;;;;15.47;10.87;;;10.40;99.90;;;;;;5064288;28;20638;-61
2022/12/22 05:55:24;;;;;;;14.80;10.67;;;10.50;99.90;;;;;;5080365;28;20549;-61
2022/12/22 05:57:51;;;;;;;17.30;11.43;;;10.40;99.90;;;;;;5080587;28;20206;-61
2022/12/22 06:00:18;;;;;;;15.83;10.53;;;10.40;99.90;;;;;;5081231;28;20811;-62
2022/12/22 06:02:45;;;;;;;16.57;11.20;;;10.40;99.90;;;;;;5079543;28;20290;-61
2022/12/22 06:05:13;;;;;;;15.33;10.80;;;10.40;99.90;;;;;;5082749;28;20206;-61
2022/12/22 06:07:40;;;;;;;19.00;11.70;;;10.40;99.90;;;;;;5063636;28;20213;-61
2022/12/22 06:10:08;;;;;;;20.13;11.87;;;10.40;99.90;;;;;;5082126;28;20202;-61
2022/12/22 06:12:39;;;;;;;19.07;11.80;;;10.40;99.90;;;;;;5067204;28;20902;-61
2022/12/22 06:15:07;;;;;;;20.37;12.17;;;10.30;99.90;;;;;;5079952;28;20613;-61
2022/12/22 06:17:34;;;;;;;23.57;12.63;;;10.30;99.90;;;;;;5080092;28;21135;-61
2022/12/22 06:20:10;;;;;;;23.20;13.70;;;10.40;99.90;;;;;;5076793;28;20204;-61
2022/12/22 06:22:37;;;;;;;22.77;13.73;;;10.30;99.90;;;;;;5081460;28;20206;-61
2022/12/22 06:25:04;;;;;;;24.80;13.07;;;10.30;99.90;;;;;;5081564;28;20215;-61
2022/12/22 06:27:31;;;;;;;24.67;13.77;;;10.20;99.90;;;;;;5080047;28;20650;-61
2022/12/22 06:29:58;;;;;;;24.87;13.33;;;10.20;99.90;;;;;;5062410;28;20290;-62
2022/12/22 06:32:24;;;;;;;30.27;14.50;;;10.30;99.90;;;;;;5081362;28;20206;-61
2022/12/22 06:34:51;;;;;;;27.67;14.77;;;10.20;99.90;;;;;;5081999;28;20360;-61
2022/12/22 06:37:18;;;;;;;30.30;14.67;;;10.20;99.90;;;;;;5081673;28;20202;-61
2022/12/22 06:39:45;;;;;;;27.53;13.83;;;10.10;99.90;;;;;;5061639;28;20199;-61
2022/12/22 06:44:57;;;;;;;30.77;14.77;;;10.10;99.90;;;;;;5081323;28;20201;-61
2022/12/22 06:47:24;;;;;;;36.30;16.67;;;10.10;99.90;;;;;;5079395;28;20195;-61
2022/12/22 06:49:51;;;;;;;34.20;15.63;;;10.10;99.90;;;;;;5080790;28;20205;-61
2022/12/22 06:52:18;;;;;;;31.67;15.53;;;10.10;99.90;;;;;;5080458;28;20206;-62
2022/12/22 06:54:44;;;;;;;33.00;16.37;;;10.10;99.90;;;;;;5082630;28;20218;-62
2022/12/22 06:57:11;;;;;;;34.50;16.97;;;10.20;99.90;;;;;;5044090;28;20210;-61
2022/12/22 06:59:38;;;;;;;33.30;16.33;;;10.10;99.90;;;;;;5078534;28;20653;-61
2022/12/22 07:02:05;;;;;;;32.83;16.03;;;10.10;99.90;;;;;;5057819;28;20208;-61
2022/12/22 07:04:32;;;;;;;40.60;17.70;;;10.10;99.90;;;;;;5078772;28;20226;-61
2022/12/22 07:07:00;;;;;;;34.30;16.47;;;10.10;99.90;;;;;;5078668;28;20949;-62
2022/12/22 07:09:28;;;;;;;38.33;16.93;;;10.10;99.90;;;;;;5078932;28;20635;-62
2022/12/22 07:11:55;;;;;;;32.97;16.27;;;10.20;99.90;;;;;;5079813;28;20309;-62
2022/12/22 07:14:22;;;;;;;37.67;19.03;;;10.20;99.90;;;;;;5076544;28;20223;-61
2022/12/22 07:16:48;;;;;;;36.00;15.63;;;10.20;99.90;;;;;;5065826;28;20260;-61
2022/12/22 07:19:15;;;;;;;36.57;16.20;;;10.20;99.90;;;;;;5060541;28;20764;-61
2022/12/22 07:21:42;;;;;;;37.23;15.83;;;10.10;99.90;;;;;;5080175;28;20247;-61
2022/12/22 07:24:09;;;;;;;37.30;15.33;;;10.10;99.90;;;;;;5080038;28;20205;-63
2022/12/22 07:26:36;;;;;;;38.27;17.00;;;10.00;99.90;;;;;;5061932;28;20207;-61
2022/12/22 07:29:03;;;;;;;33.83;14.90;;;10.00;99.90;;;;;;5083117;28;20201;-61
2022/12/22 07:31:29;;;;;;;36.17;15.20;;;10.00;99.90;;;;;;5081057;28;20231;-61
2022/12/22 07:33:56;;;;;;;42.47;17.20;;;10.00;99.90;;;;;;5077614;28;20684;-61
2022/12/22 07:36:23;;;;;;;33.00;15.67;;;10.00;99.90;;;;;;5081247;28;21053;-63
2022/12/22 07:38:51;;;;;;;33.27;15.50;;;9.90;99.90;;;;;;5078533;28;20269;-61
2022/12/22 07:44:04;;;;;;;32.10;15.13;;;9.90;99.90;;;;;;5076376;28;20461;-61
2022/12/22 07:46:35;;;;;;;32.23;14.90;;;9.80;99.90;;;;;;5074793;28;20303;-61
2022/12/22 07:51:48;;;;;;;33.40;16.33;;;9.90;99.90;;;;;;4718050;28;10000315;-62
2022/12/22 07:54:16;;;;;;;36.27;16.87;;;10.00;99.90;;;;;;5061554;28;20219;-62
2022/12/22 07:56:44;;;;;;;35.90;17.00;;;10.00;99.90;;;;;;5073520;28;20213;-62
2022/12/22 07:59:12;;;;;;;34.27;15.13;;;9.90;99.90;;;;;;5074198;28;20206;-61
2022/12/22 08:01:40;;;;;;;34.73;14.97;;;9.80;99.90;;;;;;5058828;28;20610;-61
2022/12/22 08:04:08;;;;;;;32.57;16.17;;;9.70;99.90;;;;;;5072782;28;20664;-62
2022/12/22 08:06:35;;;;;;;29.57;14.20;;;9.90;99.90;;;;;;5073911;28;20287;-62
2022/12/22 08:09:04;;;;;;;28.40;14.60;;;9.80;99.90;;;;;;5071315;28;20221;-63
2022/12/22 08:11:32;;;;;;;32.37;14.73;;;9.70;99.90;;;;;;5071291;28;20321;-62
2022/12/22 08:13:59;;;;;;;28.87;14.23;;;9.70;99.90;;;;;;5061571;28;20535;-63
2022/12/22 08:16:27;;;;;;;32.67;14.90;;;9.80;99.90;;;;;;5050516;28;20240;-63
2022/12/22 08:18:55;;;;;;;28.20;13.73;;;9.70;99.90;;;;;;5052291;28;21083;-63
2022/12/22 08:21:22;;;;;;;34.57;15.43;;;9.80;99.90;;;;;;5072127;28;20203;-64
2022/12/22 08:23:49;;;;;;;31.10;13.47;;;9.80;99.90;;;;;;5071071;28;20337;-63
2022/12/22 08:26:37;;;;;;;28.60;13.17;;;9.70;99.90;;;;;;5068784;28;20272;-63
2022/12/22 08:29:11;;;;;;;33.27;14.77;;;9.80;99.90;;;;;;5071319;28;20197;-63
2022/12/22 08:31:40;;;;;;;27.80;14.57;;;9.80;99.90;;;;;;5075421;28;20621;-63
2022/12/22 08:34:11;;;;;;;31.57;13.97;;;9.80;99.90;;;;;;5076293;28;20313;-62
2022/12/22 08:36:43;;;;;;;28.20;13.70;;;9.80;99.90;;;;;;5077644;28;20204;-62
2022/12/22 08:39:10;;;;;;;28.83;14.27;;;9.70;99.90;;;;;;5072320;28;20307;-62
2022/12/22 08:41:49;;;;;;;24.70;13.37;;;9.70;99.90;;;;;;5071539;28;21133;-62
2022/12/22 08:44:28;;;;;;;25.70;13.27;;;9.70;99.90;;;;;;5073091;28;20402;-62
2022/12/22 08:46:56;;;;;;;26.73;13.13;;;9.70;99.90;;;;;;5069047;28;20203;-61
2022/12/22 08:49:23;;;;;;;23.80;13.17;;;9.60;99.90;;;;;;5076496;28;20303;-62
2022/12/22 08:51:51;;;;;;;30.07;14.60;;;9.70;99.90;;;;;;5078230;28;20564;-62
2022/12/22 08:54:18;;;;;;;23.40;12.93;;;9.60;99.90;;;;;;5068196;28;20315;-61
2022/12/22 08:56:46;;;;;;;26.57;13.27;;;9.50;99.90;;;;;;5070488;28;20224;-62
2022/12/22 08:59:12;;;;;;;23.40;12.83;;;9.40;99.90;;;;;;5074743;28;20194;-62
2022/12/22 09:01:42;;;;;;;26.03;12.73;;;9.30;99.90;;;;;;5074104;28;20297;-61
2022/12/22 09:04:16;;;;;;;30.50;14.53;;;9.30;99.90;;;;;;5067362;28;20301;-62
2022/12/22 09:06:43;;;;;;;27.00;13.53;;;9.10;99.90;;;;;;5081065;28;20203;-62
2022/12/22 09:09:12;;;;;;;25.83;13.07;;;9.20;99.90;;;;;;5061246;28;20649;-62
2022/12/22 09:11:39;;;;;;;28.50;13.13;;;9.20;99.90;;;;;;5079123;28;20342;-62
2022/12/22 09:14:08;;;;;;;26.87;13.77;;;9.20;99.90;;;;;;5073689;28;20228;-62
2022/12/22 09:16:35;;;;;;;23.77;12.90;;;9.10;99.90;;;;;;5074309;28;20254;-62
2022/12/22 09:19:03;;;;;;;26.47;13.87;;;8.90;99.90;;;;;;5069449;28;20214;-62
2022/12/22 09:21:30;;;;;;;26.73;14.13;;;9.00;99.90;;;;;;5074687;28;20202;-62
2022/12/22 09:23:57;;;;;;;27.13;13.33;;;9.20;99.90;;;;;;5076108;28;20565;-62
2022/12/22 09:26:26;;;;;;;26.70;13.10;;;9.40;99.90;;;;;;5077052;28;20235;-63
2022/12/22 09:28:54;;;;;;;25.97;13.63;;;9.50;99.90;;;;;;5076421;28;20950;-62
2022/12/22 09:31:22;;;;;;;26.33;13.60;;;9.60;99.90;;;;;;5078032;28;20542;-62
2022/12/22 09:33:50;;;;;;;23.10;12.30;;;9.50;99.90;;;;;;5075008;28;20232;-65
2022/12/22 09:36:23;;;;;;;28.63;12.50;;;9.40;99.90;;;;;;5077779;28;20204;-62
2022/12/22 09:38:51;;;;;;;24.80;13.27;;;9.40;99.90;;;;;;5072829;28;20571;-62
2022/12/22 09:41:39;;;;;;;27.30;13.30;;;9.40;99.90;;;;;;5072204;28;20614;-62
2022/12/22 09:44:18;;;;;;;28.73;13.93;;;9.30;99.90;;;;;;5070662;28;20503;-62
2022/12/22 09:46:45;;;;;;;27.87;12.03;;;9.30;99.90;;;;;;5074751;28;20601;-62
2022/12/22 09:49:16;;;;;;;23.83;12.03;;;9.30;99.90;;;;;;5061898;28;20196;-62
2022/12/22 09:51:48;;;;;;;28.27;13.00;;;9.40;99.90;;;;;;5078063;28;20607;-62
2022/12/22 09:54:15;;;;;;;27.63;12.33;;;9.40;99.90;;;;;;5070358;28;20267;-62
2022/12/22 09:56:42;;;;;;;23.30;12.27;;;9.40;99.90;;;;;;5058572;28;20281;-62
2022/12/22 09:59:17;;;;;;;23.63;12.40;;;9.40;99.90;;;;;;5073747;28;20210;-62
2022/12/22 10:01:47;;;;;;;22.37;11.73;;;9.50;99.90;;;;;;5062481;28;20204;-62
2022/12/22 10:04:42;;;;;;;22.07;12.57;;;9.50;99.90;;;;;;5078338;28;20210;-63
2022/12/22 10:07:31;;;;;;;25.37;11.37;;;9.50;99.90;;;;;;5081640;28;20590;-62
2022/12/22 10:10:12;;;;;;;22.77;11.23;;;9.40;99.90;;;;;;5074414;28;20210;-62
2022/12/22 10:12:39;;;;;;;22.20;11.33;;;9.50;99.90;;;;;;5078785;28;20692;-63
2022/12/22 10:15:10;;;;;;;26.00;12.00;;;9.40;99.90;;;;;;5080200;28;20281;-62
2022/12/22 10:17:44;;;;;;;21.97;11.53;;;9.40;99.90;;;;;;5079230;28;20268;-63
2022/12/22 10:20:24;;;;;;;23.07;12.27;;;9.40;99.90;;;;;;5080876;28;20232;-62
2022/12/22 10:23:19;;;;;;;21.83;10.87;;;9.30;99.90;;;;;;5072568;28;20205;-62
2022/12/22 10:26:10;;;;;;;21.30;11.23;;;9.30;99.90;;;;;;5072516;28;20238;-63
2022/12/22 10:29:06;;;;;;;19.00;10.37;;;9.20;99.90;;;;;;5081039;28;20554;-63
2022/12/22 10:31:35;;;;;;;21.70;12.40;;;9.30;99.90;;;;;;5081576;28;20225;-62
2022/12/22 10:34:16;;;;;;;21.37;11.00;;;9.30;99.90;;;;;;5080874;28;20692;-63
2022/12/22 10:36:48;;;;;;;21.53;11.33;;;9.30;99.90;;;;;;5073781;28;20234;-63
2022/12/22 10:39:22;;;;;;;20.50;11.07;;;9.20;99.90;;;;;;5079319;28;20207;-62
2022/12/22 10:41:51;;;;;;;18.93;11.47;;;9.10;99.90;;;;;;5081703;28;20227;-62
2022/12/22 10:44:21;;;;;;;17.83;10.47;;;9.20;99.90;;;;;;5081004;28;20198;-63
2022/12/22 10:46:53;;;;;;;18.00;10.37;;;9.10;99.90;;;;;;5081550;28;20236;-63
2022/12/22 10:49:36;;;;;;;20.23;10.63;;;9.10;99.90;;;;;;5079657;28;20276;-62
2022/12/22 10:52:10;;;;;;;17.70;10.63;;;9.20;99.90;;;;;;5081049;28;20196;-63
2022/12/22 10:54:41;;;;;;;18.50;10.10;;;9.20;99.90;;;;;;5078691;28;20316;-62
2022/12/22 10:57:14;;;;;;;15.63;9.13;;;9.40;99.90;;;;;;5080604;28;20637;-63
2022/12/22 10:59:51;;;;;;;17.97;9.50;;;9.50;99.90;;;;;;5080673;28;20198;-63
2022/12/22 11:02:23;;;;;;;22.73;9.67;;;9.40;99.90;;;;;;5079576;28;20736;-63
2022/12/22 11:04:52;;;;;;;18.83;9.27;;;9.60;99.90;;;;;;5080387;28;20207;-62
2022/12/22 11:07:19;;;;;;;19.07;10.50;;;9.60;99.90;;;;;;5078514;28;20219;-63
2022/12/22 11:09:46;;;;;;;17.97;9.17;;;9.60;99.90;;;;;;5074860;28;20206;-63
2022/12/22 11:12:32;;;;;;;23.37;10.00;;;9.50;99.90;;;;;;5077435;28;20237;-63
2022/12/22 11:15:16;;;;;;;20.27;9.53;;;9.40;99.90;;;;;;5077256;28;20338;-63
2022/12/22 11:18:13;;;;;;;17.23;8.80;;;9.30;99.90;;;;;;5075381;28;20685;-62
2022/12/22 11:20:53;;;;;;;19.87;9.37;;;9.40;99.90;;;;;;5066042;28;20211;-62
2022/12/22 11:23:32;;;;;;;15.60;8.60;;;9.30;99.90;;;;;;5076501;28;20218;-63
2022/12/22 11:26:18;;;;;;;13.03;8.00;;;9.40;99.90;;;;;;5078854;28;20293;-63
2022/12/22 11:28:57;;;;;;;19.47;8.83;;;9.30;99.90;;;;;;5070374;28;20254;-63
2022/12/22 11:31:50;;;;;;;18.00;8.07;;;9.30;99.90;;;;;;5078584;28;20319;-63
2022/12/22 11:34:41;;;;;;;15.93;7.53;;;9.10;99.90;;;;;;5071369;28;20208;-63
2022/12/22 11:37:32;;;;;;;12.83;7.77;;;9.00;99.90;;;;;;5072615;28;20224;-62
2022/12/22 11:40:36;;;;;;;16.77;8.00;;;8.90;99.90;;;;;;5077342;28;20284;-62
2022/12/22 11:43:24;;;;;;;16.20;7.57;;;8.80;99.90;;;;;;5058437;28;20199;-63
2022/12/22 11:46:26;;;;;;;13.87;8.17;;;8.90;99.90;;;;;;5075966;28;20545;-63
2022/12/22 11:49:02;;;;;;;14.73;8.40;;;9.00;99.90;;;;;;5074257;28;20695;-63
2022/12/22 11:51:55;;;;;;;18.53;9.23;;;9.10;99.90;;;;;;5075011;28;21107;-63
2022/12/22 11:54:25;;;;;;;21.23;9.93;;;9.10;99.90;;;;;;5069912;28;20192;-63
2022/12/22 11:57:09;;;;;;;21.80;10.10;;;9.10;99.90;;;;;;5078107;28;20204;-64
2022/12/22 11:59:42;;;;;;;18.77;11.03;;;9.10;99.90;;;;;;5076503;28;20292;-62
2022/12/22 12:02:15;;;;;;;18.33;11.90;;;9.00;99.90;;;;;;5076275;28;20202;-63
2022/12/22 12:05:13;;;;;;;19.73;13.03;;;8.90;99.90;;;;;;5068394;28;20206;-64
2022/12/22 12:07:43;;;;;;;25.37;14.10;;;8.90;99.90;;;;;;5075797;28;20270;-62
2022/12/22 12:10:27;;;;;;;25.27;13.60;;;9.00;99.90;;;;;;5076949;28;20663;-63
2022/12/22 12:13:12;;;;;;;21.60;13.00;;;9.00;99.90;;;;;;5076066;28;20299;-62
2022/12/22 12:16:12;;;;;;;23.40;13.67;;;9.30;99.90;;;;;;5057419;28;20231;-63
2022/12/22 12:19:06;;;;;;;26.70;13.87;;;9.40;99.90;;;;;;5053714;28;20206;-62
2022/12/22 12:21:50;;;;;;;28.10;15.30;;;9.30;99.90;;;;;;5072125;28;20203;-62
2022/12/22 12:24:35;;;;;;;24.97;14.57;;;9.30;99.90;;;;;;5056662;28;20196;-62
2022/12/22 12:27:08;;;;;;;26.27;15.70;;;9.30;99.90;;;;;;5064210;28;20210;-64
2022/12/22 12:30:09;;;;;;;24.90;15.67;;;9.30;99.90;;;;;;5075181;28;20205;-66
2022/12/22 12:33:08;;;;;;;26.63;14.80;;;9.40;99.90;;;;;;5069610;28;20210;-63
2022/12/22 12:36:04;;;;;;;29.80;15.80;;;9.40;99.90;;;;;;5076535;28;20297;-63
2022/12/22 12:38:50;;;;;;;23.33;13.90;;;9.50;99.90;;;;;;5071588;28;20208;-63
2022/12/22 12:41:43;;;;;;;25.30;13.90;;;9.40;99.90;;;;;;5075592;28;20206;-62
2022/12/22 12:44:17;;;;;;;31.47;16.23;;;9.50;99.90;;;;;;5077831;28;20663;-62
2022/12/22 12:46:50;;;;;;;22.30;14.00;;;9.50;99.90;;;;;;5075459;28;20210;-63
2022/12/22 12:49:35;;;;;;;24.80;14.70;;;9.50;99.90;;;;;;5073072;28;20328;-62
2022/12/22 12:52:09;;;;;;;27.50;16.27;;;9.50;99.90;;;;;;5074654;28;20263;-63
2022/12/22 12:54:37;;;;;;;23.30;14.80;;;9.50;99.90;;;;;;5069600;28;20293;-63
2022/12/22 12:57:22;;;;;;;23.67;15.60;;;9.50;99.90;;;;;;5072062;28;20312;-63
2022/12/22 12:59:52;;;;;;;28.30;16.73;;;9.50;99.90;;;;;;5075963;28;20720;-63
2022/12/22 13:02:37;;;;;;;28.37;16.20;;;9.50;99.90;;;;;;5073544;28;20217;-65
2022/12/22 13:05:10;;;;;;;25.37;16.30;;;9.50;99.90;;;;;;5074186;28;20200;-62
2022/12/22 13:08:08;;;;;;;28.57;17.53;;;9.40;99.90;;;;;;5072348;28;20550;-61
2022/12/22 13:10:39;;;;;;;24.30;16.67;;;9.60;99.90;;;;;;5073201;28;20255;-63
2022/12/22 13:13:21;;;;;;;26.40;17.47;;;9.70;99.90;;;;;;5074320;28;20295;-62
2022/12/22 13:16:00;;;;;;;28.00;17.03;;;9.60;99.90;;;;;;5076102;28;20700;-62
2022/12/22 13:18:41;;;;;;;27.57;18.77;;;9.60;99.90;;;;;;5072558;28;20212;-62
2022/12/22 13:21:24;;;;;;;26.67;16.93;;;9.60;99.90;;;;;;5073658;28;20199;-62
2022/12/22 13:24:16;;;;;;;25.40;16.80;;;9.60;99.90;;;;;;5076310;28;21121;-62
2022/12/22 13:26:54;;;;;;;23.53;16.23;;;9.60;99.90;;;;;;5076609;28;20206;-62
2022/12/22 13:29:21;;;;;;;29.37;17.23;;;9.60;99.90;;;;;;5076788;28;20716;-62
2022/12/22 13:32:01;;;;;;;25.97;16.37;;;9.70;99.90;;;;;;5074548;28;20695;-62
2022/12/22 13:34:47;;;;;;;25.83;15.83;;;9.60;99.90;;;;;;5075025;28;20664;-62
2022/12/22 13:37:40;;;;;;;27.70;15.83;;;9.70;99.90;;;;;;5075275;28;20327;-65
2022/12/22 13:40:13;;;;;;;24.00;15.03;;;9.50;99.90;;;;;;5076304;28;20224;-61
2022/12/22 13:42:42;;;;;;;20.97;13.20;;;9.50;99.90;;;;;;5067859;28;20284;-62
2022/12/22 13:45:39;;;;;;;22.93;13.90;;;9.50;99.90;;;;;;5073960;28;20651;-64
2022/12/22 13:48:38;;;;;;;24.80;14.30;;;9.40;99.90;;;;;;5064273;28;20294;-63
2022/12/22 13:51:21;;;;;;;23.40;14.40;;;9.50;99.90;;;;;;5079350;28;20223;-63
2022/12/22 13:53:53;;;;;;;28.93;15.00;;;9.50;99.90;;;;;;5074551;28;20201;-63
2022/12/22 13:56:44;;;;;;;21.63;14.67;;;9.60;99.90;;;;;;5079158;28;20214;-63
2022/12/22 13:59:28;;;;;;;20.77;14.13;;;9.60;99.90;;;;;;5073543;28;20213;-63
2022/12/22 14:02:13;;;;;;;18.50;12.07;;;9.50;99.90;;;;;;5073849;28;20204;-63
2022/12/22 14:04:43;;;;;;;17.77;11.20;;;9.50;99.90;;;;;;5072264;28;20205;-62
2022/12/22 14:07:19;;;;;;;18.83;11.70;;;9.50;99.90;;;;;;5072524;28;20211;-63
2022/12/22 14:09:53;;;;;;;16.33;11.80;;;9.60;99.90;;;;;;5070317;28;20358;-62
2022/12/22 14:12:43;;;;;;;16.70;11.53;;;9.60;99.90;;;;;;5069558;28;20301;-62
2022/12/22 14:15:18;;;;;;;20.63;10.30;;;9.60;99.90;;;;;;5072308;28;20286;-63
2022/12/22 14:17:45;;;;;;;19.07;10.37;;;9.60;99.90;;;;;;5072663;28;20214;-62
2022/12/22 14:20:24;;;;;;;16.03;10.67;;;9.50;99.90;;;;;;5069481;28;20326;-62
2022/12/22 14:22:57;;;;;;;18.43;11.90;;;9.60;99.90;;;;;;5071559;28;20250;-62
2022/12/22 14:25:32;;;;;;;15.97;10.33;;;9.60;99.90;;;;;;5073896;28;20267;-61
2022/12/22 14:28:00;;;;;;;15.03;10.43;;;9.70;99.90;;;;;;5068240;28;20662;-61
2022/12/22 14:30:31;;;;;;;14.77;9.77;;;9.70;99.90;;;;;;5072974;28;20670;-61
2022/12/22 14:33:16;;;;;;;16.90;10.73;;;9.70;99.90;;;;;;5072527;28;20207;-62
2022/12/22 14:35:43;;;;;;;15.73;9.83;;;9.60;99.90;;;;;;5078643;28;20215;-62
2022/12/22 14:38:22;;;;;;;16.70;10.10;;;9.60;99.90;;;;;;5075848;28;20194;-63
2022/12/22 14:40:49;;;;;;;18.27;10.20;;;9.60;99.90;;;;;;5076665;28;20204;-62
2022/12/22 14:43:26;;;;;;;14.80;9.90;;;9.60;99.90;;;;;;5076105;28;20533;-62
2022/12/22 14:46:03;;;;;;;16.00;9.83;;;9.50;99.90;;;;;;5079254;28;20268;-61
2022/12/22 14:48:34;;;;;;;13.03;8.73;;;9.50;99.90;;;;;;5074331;28;20199;-61
2022/12/22 14:51:02;;;;;;;16.67;9.57;;;9.60;99.90;;;;;;5077813;28;20205;-64
2022/12/22 14:53:44;;;;;;;12.93;9.03;;;9.60;99.90;;;;;;5081226;28;20239;-62
2022/12/22 14:56:12;;;;;;;13.83;9.00;;;9.70;99.90;;;;;;5077946;28;20216;-62
2022/12/22 14:58:41;;;;;;;13.70;9.20;;;9.70;99.90;;;;;;5075920;28;20203;-61
2022/12/22 15:01:19;;;;;;;16.07;8.87;;;9.70;99.90;;;;;;5083571;28;20191;-61
2022/12/22 15:04:15;;;;;;;13.93;9.43;;;9.60;99.90;;;;;;5077447;28;20235;-62
2022/12/22 15:06:44;;;;;;;12.93;8.10;;;9.40;99.90;;;;;;5071773;28;20208;-62
2022/12/22 15:09:14;;;;;;;15.27;9.47;;;9.30;99.90;;;;;;5072202;28;20200;-62
2022/12/22 15:11:45;;;;;;;12.80;7.87;;;9.40;99.90;;;;;;5073967;28;20569;-62
2022/12/22 15:14:19;;;;;;;13.00;8.07;;;9.20;99.90;;;;;;5073482;28;20242;-62
2022/12/22 15:16:47;;;;;;;14.77;7.53;;;9.20;99.90;;;;;;5071198;28;20591;-62
2022/12/22 15:19:16;;;;;;;16.97;9.90;;;9.40;99.90;;;;;;5073662;28;20660;-62
2022/12/22 15:21:43;;;;;;;13.30;9.33;;;9.40;99.90;;;;;;5074374;28;20270;-62
2022/12/22 15:24:14;;;;;;;14.63;9.70;;;9.30;99.90;;;;;;5074220;28;21019;-62
2022/12/22 15:26:42;;;;;;;11.83;9.23;;;9.30;99.90;;;;;;5081824;28;20269;-62
2022/12/22 15:29:09;;;;;;;14.83;9.07;;;9.20;99.90;;;;;;5075362;28;20265;-62
2022/12/22 15:31:38;;;;;;;12.47;8.23;;;9.40;99.90;;;;;;5074427;28;20200;-62
2022/12/22 15:34:30;;;;;;;10.27;8.03;;;9.40;99.90;;;;;;5073726;28;20204;-62
2022/12/22 15:36:57;;;;;;;12.50;8.43;;;9.40;99.90;;;;;;5074909;28;20216;-62
2022/12/22 15:39:25;;;;;;;10.83;8.50;;;9.30;99.90;;;;;;5073118;28;20196;-62
2022/12/22 15:41:53;;;;;;;12.83;8.57;;;9.30;99.90;;;;;;5074321;28;20683;-62
2022/12/22 15:44:21;;;;;;;11.67;7.77;;;9.30;99.90;;;;;;5073112;28;20253;-62
2022/12/22 15:46:55;;;;;;;8.87;7.43;;;9.20;99.90;;;;;;5073213;28;20207;-62
2022/12/22 15:49:25;;;;;;;12.27;7.90;;;9.20;99.90;;;;;;5073367;28;20232;-62
2022/12/22 15:51:55;;;;;;;13.23;8.00;;;9.40;99.90;;;;;;5076096;28;20203;-62
2022/12/22 15:54:24;;;;;;;11.17;8.40;;;9.30;99.90;;;;;;5075567;28;20210;-61
2022/12/22 15:56:52;;;;;;;12.47;8.83;;;9.30;99.90;;;;;;5073552;28;20215;-61
2022/12/22 15:59:24;;;;;;;12.30;8.20;;;9.30;99.90;;;;;;5074563;28;20196;-61
2022/12/22 16:01:51;;;;;;;11.73;9.07;;;9.20;99.90;;;;;;5076190;28;20284;-64
2022/12/22 16:04:27;;;;;;;11.13;7.93;;;9.20;99.90;;;;;;5075952;28;20246;-61
2022/12/22 16:06:55;;;;;;;13.23;8.83;;;9.20;99.90;;;;;;5075508;28;20206;-61
2022/12/22 16:09:26;;;;;;;12.80;8.90;;;9.10;99.90;;;;;;5072890;28;20235;-61
2022/12/22 16:11:53;;;;;;;10.90;9.07;;;9.10;99.90;;;;;;5076161;28;20229;-62
2022/12/22 16:14:22;;;;;;;10.63;8.13;;;9.20;99.90;;;;;;5071276;28;20205;-62
2022/12/22 16:16:49;;;;;;;12.83;9.13;;;9.30;99.90;;;;;;5075298;28;20243;-62
2022/12/22 16:19:17;;;;;;;13.47;8.97;;;9.20;99.90;;;;;;5070664;28;20206;-63
2022/12/22 16:21:47;;;;;;;9.57;8.27;;;9.30;99.90;;;;;;5074583;28;20302;-63
2022/12/22 16:24:34;;;;;;;12.90;8.90;;;9.20;99.90;;;;;;5069020;28;20585;-63
2022/12/22 16:27:02;;;;;;;18.40;10.00;;;9.30;99.90;;;;;;5077315;28;20204;-62
2022/12/22 16:29:29;;;;;;;11.73;8.33;;;9.10;99.90;;;;;;5067576;28;20209;-63
2022/12/22 16:32:21;;;;;;;13.67;9.13;;;9.20;99.90;;;;;;5069065;28;20693;-63
2022/12/22 16:34:47;;;;;;;10.23;7.83;;;9.20;99.90;;;;;;5070897;28;20214;-63
2022/12/22 16:37:14;;;;;;;11.00;8.23;;;9.20;99.90;;;;;;5072372;28;20577;-62
2022/12/22 16:39:41;;;;;;;10.30;8.10;;;9.20;99.90;;;;;;5072455;28;20271;-64
2022/12/22 16:42:13;;;;;;;12.53;8.57;;;9.20;99.90;;;;;;5073268;28;20294;-63
2022/12/22 16:44:58;;;;;;;10.20;8.27;;;9.40;99.90;;;;;;5070641;28;20195;-63